createdAt,value
2017-08-22T19:24:43.503Z,16.33
2017-08-22T19:25:11.560Z,16.38
2017-08-22T19:25:39.618Z,16.33
2017-08-22T19:26:07.677Z,16.41
2017-08-22T19:26:36.523Z,16.41
2017-08-22T19:27:05.371Z,16.39
2017-08-22T19:27:34.112Z,16.31
2017-08-22T19:28:02.973Z,16.3
2017-08-22T19:28:31.600Z,16.33
2017-08-22T19:28:59.661Z,16.27
2017-08-22T19:29:28.328Z,16.39
2017-08-22T19:29:56.388Z,16.35
2017-08-22T19:30:24.476Z,16.24
2017-08-22T19:30:52.536Z,16.24
2017-08-22T19:31:21.386Z,16.15
2017-08-22T19:31:49.436Z,16.17
2017-08-22T19:32:17.441Z,16.12
2017-08-22T19:32:46.096Z,16.12
2017-08-22T19:33:13.981Z,16.2
2017-08-22T19:33:42.046Z,16.2
2017-08-22T19:34:10.116Z,16.11
2017-08-22T19:34:38.123Z,16.14
2017-08-22T19:35:06.904Z,16.09
2017-08-22T19:35:35.844Z,16.07
2017-08-22T19:36:04.049Z,16.12
2017-08-22T19:36:33.227Z,16.15
2017-08-22T19:37:02.396Z,16.15
2017-08-22T19:37:31.136Z,16.15
2017-08-22T19:38:00.317Z,16.12
2017-08-22T19:38:29.010Z,16.15
2017-08-22T19:38:57.609Z,16.11
2017-08-22T19:39:27.036Z,16.08
2017-08-22T19:39:57.068Z,16.01
2017-08-22T19:40:25.099Z,16.02
2017-08-22T19:40:53.959Z,15.97
2017-08-22T19:41:22.060Z,15.94
2017-08-22T19:41:49.950Z,16.01
2017-08-22T19:42:17.821Z,15.94
2017-08-22T19:42:45.910Z,15.86
2017-08-22T19:43:13.973Z,15.84
2017-08-22T19:43:41.951Z,15.86
2017-08-22T19:44:10.034Z,15.83
2017-08-22T19:44:38.970Z,15.86
2017-08-22T19:45:07.359Z,15.97
2017-08-22T19:45:35.141Z,15.92
2017-08-22T19:46:04.019Z,15.97
2017-08-22T19:46:32.002Z,16
2017-08-22T19:47:00.076Z,15.9
2017-08-22T19:47:28.060Z,15.94
2017-08-22T19:47:56.878Z,15.83
2017-08-22T19:48:25.644Z,15.82
2017-08-22T19:48:53.611Z,15.82
2017-08-22T19:49:21.475Z,15.83
2017-08-22T19:49:49.335Z,15.94
2017-08-22T19:50:17.297Z,15.92
2017-08-22T19:50:45.275Z,15.97
2017-08-22T19:51:13.307Z,16.04
2017-08-22T19:51:41.269Z,16.05
2017-08-22T19:52:09.339Z,16.07
2017-08-22T19:52:38.208Z,16.14
2017-08-22T19:53:07.042Z,16.15
2017-08-22T19:53:35.882Z,16.08
2017-08-22T19:54:03.902Z,16.25
2017-08-22T19:54:32.561Z,16.05
2017-08-22T19:55:00.718Z,16.24
2017-08-22T19:55:28.768Z,16.27
2017-08-22T19:55:56.825Z,16.27
2017-08-22T19:56:24.699Z,16.17
2017-08-22T19:56:52.670Z,16.17
2017-08-22T19:57:20.621Z,16.24
2017-08-22T19:57:49.701Z,16.3
2017-08-22T19:58:17.753Z,16.15
2017-08-22T19:58:45.723Z,16.21
2017-08-22T19:59:13.697Z,16.24
2017-08-22T19:59:41.688Z,16.09
2017-08-22T20:00:10.439Z,16.14
2017-08-22T20:00:38.494Z,16.2
2017-08-22T20:01:06.932Z,16.2
2017-08-22T20:01:35.749Z,16.2
2017-08-22T20:02:04.498Z,16.2
2017-08-22T20:02:32.457Z,16.25
2017-08-22T20:03:01.285Z,16.21
2017-08-22T20:04:07.621Z,16.31
2017-08-22T20:04:36.364Z,16.3
2017-08-22T20:05:05.198Z,16.3
2017-08-22T20:05:33.944Z,16.15
2017-08-22T20:06:01.908Z,16.24
2017-08-22T20:06:29.993Z,16.2
2017-08-22T20:06:58.828Z,16.11
2017-08-22T20:07:27.586Z,16.09
2017-08-22T20:07:55.534Z,16.05
2017-08-22T20:08:23.484Z,16.04
2017-08-22T20:08:51.439Z,16.08
2017-08-22T20:09:19.492Z,16.07
2017-08-22T20:09:47.549Z,16.2
2017-08-22T20:10:15.705Z,16.08
2017-08-22T20:10:43.758Z,16.15
2017-08-22T20:11:12.594Z,16.17
2017-08-22T20:11:41.343Z,16.14
2017-08-22T20:12:09.412Z,16.11
2017-08-22T20:12:37.474Z,16.15
2017-08-22T20:13:05.524Z,16.09
2017-08-22T20:13:33.601Z,16.17
2017-08-22T20:14:01.587Z,16.12
2017-08-22T20:14:29.664Z,16.09
2017-08-22T20:14:57.736Z,16.04
2017-08-22T20:15:25.793Z,16
2017-08-22T20:15:54.552Z,15.94
2017-08-22T20:16:22.586Z,16.01
2017-08-22T20:16:50.559Z,15.96
2017-08-22T20:17:18.620Z,15.92
2017-08-22T20:17:49.030Z,15.97
2017-08-22T20:18:17.096Z,15.82
2017-08-22T20:18:45.072Z,15.75
2017-08-22T20:19:13.290Z,15.65
2017-08-22T20:19:41.254Z,15.65
2017-08-22T20:20:09.314Z,15.65
2017-08-22T20:20:37.311Z,15.53
2017-08-22T20:21:05.273Z,15.54
2017-08-22T20:21:33.212Z,15.62
2017-08-22T20:22:01.080Z,15.59
2017-08-22T20:22:28.929Z,15.46
2017-08-22T20:22:57.334Z,15.47
2017-08-22T20:23:25.191Z,15.5
2017-08-22T20:23:53.152Z,15.49
2017-08-22T20:24:22.733Z,15.49
2017-08-22T20:24:50.672Z,15.46
2017-08-22T20:25:18.872Z,15.47
2017-08-22T20:25:46.919Z,15.47
2017-08-22T20:26:14.995Z,15.51
2017-08-22T20:26:43.839Z,15.53
2017-08-22T20:27:11.898Z,15.53
2017-08-22T20:27:39.866Z,15.49
2017-08-22T20:28:07.740Z,15.51
2017-08-22T20:28:35.812Z,15.53
2017-08-22T20:29:03.900Z,15.64
2017-08-22T20:29:31.944Z,15.62
2017-08-22T20:30:00.787Z,15.67
2017-08-22T20:30:29.538Z,15.62
2017-08-22T20:30:57.593Z,15.62
2017-08-22T20:31:26.441Z,15.68
2017-08-22T20:31:54.505Z,15.65
2017-08-22T20:32:22.567Z,15.6
2017-08-22T20:32:50.639Z,15.69
2017-08-22T20:33:18.705Z,15.59
2017-08-22T20:33:47.442Z,15.65
2017-08-22T20:34:16.170Z,15.59
2017-08-22T20:34:44.135Z,15.62
2017-08-22T20:35:13.757Z,15.65
2017-08-22T20:35:41.716Z,15.53
2017-08-22T20:36:09.764Z,15.51
2017-08-22T20:36:37.733Z,15.47
2017-08-22T20:37:07.352Z,15.51
2017-08-22T20:37:36.095Z,15.47
2017-08-22T20:38:04.866Z,15.43
2017-08-22T20:38:32.916Z,15.38
2017-08-22T20:39:00.976Z,15.38
2017-08-22T20:39:28.943Z,15.36
2017-08-22T20:39:56.903Z,15.29
2017-08-22T20:40:25.013Z,15.35
2017-08-22T20:40:53.746Z,15.29
2017-08-22T20:41:21.795Z,15.27
2017-08-22T20:41:52.197Z,15.25
2017-08-22T20:42:20.150Z,15.27
2017-08-22T20:43:26.479Z,15.31
2017-08-22T20:43:54.368Z,15.28
2017-08-22T20:44:22.424Z,15.35
2017-08-22T20:44:50.488Z,15.27
2017-08-22T20:45:18.524Z,15.29
2017-08-22T20:45:48.048Z,15.23
2017-08-22T20:46:16.171Z,15.25
2017-08-22T20:46:43.965Z,15.25
2017-08-22T20:47:12.013Z,15.25
2017-08-22T20:47:40.846Z,15.28
2017-08-22T20:48:08.903Z,15.17
2017-08-22T20:48:37.742Z,15.25
2017-08-22T20:49:05.716Z,15.28
2017-08-22T20:49:33.690Z,15.23
2017-08-22T20:50:01.642Z,15.17
2017-08-22T20:50:29.675Z,15.2
2017-08-22T20:50:58.500Z,15.14
2017-08-22T20:51:28.021Z,15.14
2017-08-22T20:51:56.069Z,15.2
2017-08-22T20:52:24.023Z,15.23
2017-08-22T20:52:52.003Z,15.16
2017-08-22T20:53:20.066Z,15.23
2017-08-22T20:53:48.030Z,15.13
2017-08-22T20:54:15.989Z,15.16
2017-08-22T20:54:44.046Z,15.19
2017-08-22T20:55:12.868Z,15.13
2017-08-22T20:55:42.631Z,15.17
2017-08-22T20:56:11.906Z,15.17
2017-08-22T20:56:39.777Z,15.21
2017-08-22T20:57:08.513Z,15.11
2017-08-22T20:57:37.254Z,15.06
2017-08-22T20:58:05.214Z,15.14
2017-08-22T20:58:33.273Z,15.03
2017-08-22T20:59:01.332Z,15.09
2017-08-22T20:59:29.375Z,15.06
2017-08-22T20:59:57.416Z,15.1
2017-08-22T21:00:26.066Z,15.07
2017-08-22T21:00:54.109Z,15.09
2017-08-22T21:01:22.943Z,15.13
2017-08-22T21:01:50.896Z,14.98
2017-08-22T21:02:18.760Z,15.02
2017-08-22T21:02:46.538Z,15.02
2017-08-22T21:03:14.501Z,14.98
2017-08-22T21:03:44.123Z,14.99
2017-08-22T21:04:12.947Z,15.03
2017-08-22T21:04:41.786Z,15.03
2017-08-22T21:05:09.863Z,14.92
2017-08-22T21:05:37.894Z,15.02
2017-08-22T21:06:06.737Z,14.99
2017-08-22T21:06:35.574Z,14.99
2017-08-22T21:07:03.632Z,15.01
2017-08-22T21:07:32.418Z,14.99
2017-08-22T21:08:00.380Z,14.95
2017-08-22T21:08:28.443Z,14.92
2017-08-22T21:08:56.400Z,14.89
2017-08-22T21:09:24.456Z,14.88
2017-08-22T21:09:52.609Z,15.02
2017-08-22T21:10:20.756Z,14.99
2017-08-22T21:10:48.773Z,15.02
2017-08-22T21:11:16.654Z,14.91
2017-08-22T21:11:45.484Z,15.02
2017-08-22T21:12:13.454Z,15.02
2017-08-22T21:12:41.409Z,15.01
2017-08-22T21:13:09.446Z,15.03
2017-08-22T21:13:38.271Z,15.02
2017-08-22T21:14:06.309Z,15.03
2017-08-22T21:14:34.261Z,14.98
2017-08-22T21:15:03.088Z,14.99
2017-08-22T21:15:31.143Z,15.02
2017-08-22T21:15:59.111Z,15.02
2017-08-22T21:16:27.856Z,15.01
2017-08-22T21:16:56.598Z,15.02
2017-08-22T21:17:24.658Z,15.02
2017-08-22T21:17:53.493Z,15.02
2017-08-22T21:18:21.548Z,15.01
2017-08-22T21:18:49.612Z,14.99
2017-08-22T21:19:18.457Z,15.03
2017-08-22T21:19:46.496Z,15.03
2017-08-22T21:20:15.318Z,15.01
2017-08-22T21:20:43.369Z,14.98
2017-08-22T21:21:12.199Z,15.02
2017-08-22T21:21:41.811Z,15.02
2017-08-22T21:22:48.344Z,15.03
2017-08-22T21:23:16.387Z,14.95
2017-08-22T21:23:44.432Z,15.01
2017-08-22T21:24:13.256Z,14.89
2017-08-22T21:24:41.306Z,15.03
2017-08-22T21:25:09.361Z,15.02
2017-08-22T21:25:37.501Z,15.01
2017-08-22T21:26:05.552Z,15.02
2017-08-22T21:26:33.497Z,14.95
2017-08-22T21:27:02.325Z,15.01
2017-08-22T21:27:30.294Z,14.99
2017-08-22T21:27:58.340Z,15.07
2017-08-22T21:28:26.393Z,14.98
2017-08-22T21:28:54.444Z,14.92
2017-08-22T21:29:22.486Z,14.99
2017-08-22T21:29:50.347Z,14.99
2017-08-22T21:30:19.084Z,14.99
2017-08-22T21:30:47.041Z,14.92
2017-08-22T21:31:15.289Z,14.89
2017-08-22T21:31:43.335Z,14.91
2017-08-22T21:32:11.389Z,14.95
2017-08-22T21:32:40.136Z,14.99
2017-08-22T21:33:08.971Z,14.89
2017-08-22T21:33:37.018Z,14.84
2017-08-22T21:34:05.071Z,14.86
2017-08-22T21:34:33.904Z,14.84
2017-08-22T21:35:02.725Z,14.86
2017-08-22T21:35:30.800Z,14.88
2017-08-22T21:35:58.669Z,14.69
2017-08-22T21:36:26.616Z,14.8
2017-08-22T21:36:54.490Z,14.7
2017-08-22T21:37:22.456Z,14.73
2017-08-22T21:37:50.425Z,14.72
2017-08-22T21:38:19.249Z,14.8
2017-08-22T21:38:48.073Z,14.72
2017-08-22T21:39:15.942Z,14.68
2017-08-22T21:39:43.808Z,14.72
2017-08-22T21:40:11.759Z,14.73
2017-08-22T21:40:41.480Z,14.69
2017-08-22T21:41:10.415Z,14.78
2017-08-22T21:41:38.460Z,14.68
2017-08-22T21:42:07.290Z,14.72
2017-08-22T21:42:35.347Z,14.69
2017-08-22T21:43:03.301Z,14.72
2017-08-22T21:43:31.348Z,14.68
2017-08-22T21:43:59.313Z,14.65
2017-08-22T21:44:27.363Z,14.68
2017-08-22T21:44:56.198Z,14.61
2017-08-22T21:45:25.036Z,14.72
2017-08-22T21:45:53.091Z,14.68
2017-08-22T21:46:21.051Z,14.69
2017-08-22T21:46:49.906Z,14.62
2017-08-22T21:47:18.734Z,14.61
2017-08-22T21:47:46.686Z,14.57
2017-08-22T21:48:16.301Z,14.65
2017-08-22T21:48:44.361Z,14.68
2017-08-22T21:49:12.376Z,14.68
2017-08-22T21:49:40.421Z,14.69
2017-08-22T21:50:10.044Z,14.75
2017-08-22T21:50:38.013Z,14.73
2017-08-22T21:51:06.838Z,14.75
2017-08-22T21:51:34.800Z,14.81
2017-08-22T21:52:02.760Z,14.72
2017-08-22T21:52:30.808Z,14.69
2017-08-22T21:52:58.845Z,14.68
2017-08-22T21:53:26.885Z,14.75
2017-08-22T21:53:54.830Z,14.6
2017-08-22T21:54:22.881Z,14.58
2017-08-22T21:54:51.711Z,14.58
2017-08-22T21:55:19.759Z,14.54
2017-08-22T21:55:47.973Z,14.54
2017-08-22T21:56:16.802Z,14.52
2017-08-22T21:56:44.767Z,14.54
2017-08-22T21:57:12.824Z,14.51
2017-08-22T21:57:40.691Z,14.5
2017-08-22T21:58:08.849Z,14.52
2017-08-22T21:58:38.668Z,14.52
2017-08-22T21:59:07.402Z,14.42
2017-08-22T21:59:35.435Z,14.46
2017-08-22T22:00:03.473Z,14.36
2017-08-22T22:00:32.303Z,14.5
2017-08-22T22:01:01.907Z,14.54
2017-08-22T22:02:08.455Z,14.5
2017-08-22T22:02:36.499Z,14.4
2017-08-22T22:03:05.327Z,14.43
2017-08-22T22:03:34.360Z,14.36
2017-08-22T22:04:02.413Z,14.42
2017-08-22T22:04:30.374Z,14.35
2017-08-22T22:04:59.203Z,14.37
2017-08-22T22:05:27.948Z,14.42
2017-08-22T22:05:55.894Z,14.36
2017-08-22T22:06:23.852Z,14.46
2017-08-22T22:06:51.805Z,14.4
2017-08-22T22:07:19.844Z,14.35
2017-08-22T22:07:47.802Z,14.36
2017-08-22T22:08:15.857Z,14.39
2017-08-22T22:08:43.911Z,14.39
2017-08-22T22:09:12.551Z,14.39
2017-08-22T22:09:42.162Z,14.47
2017-08-22T22:10:10.915Z,14.51
2017-08-22T22:10:39.646Z,14.39
2017-08-22T22:11:07.792Z,14.47
2017-08-22T22:11:35.852Z,14.54
2017-08-22T22:12:03.909Z,14.4
2017-08-22T22:12:31.892Z,14.36
2017-08-22T22:12:59.926Z,14.39
2017-08-22T22:13:27.888Z,14.37
2017-08-22T22:13:55.923Z,14.37
2017-08-22T22:14:24.757Z,14.47
2017-08-22T22:14:52.719Z,14.43
2017-08-22T22:15:21.652Z,14.47
2017-08-22T22:15:50.212Z,14.46
2017-08-22T22:16:18.261Z,14.4
2017-08-22T22:16:47.091Z,14.46
2017-08-22T22:17:15.154Z,14.43
2017-08-22T22:17:43.205Z,14.45
2017-08-22T22:18:12.036Z,14.39
2017-08-22T22:18:40.083Z,14.47
2017-08-22T22:19:08.134Z,14.36
2017-08-22T22:19:36.958Z,14.51
2017-08-22T22:20:05.004Z,14.4
2017-08-22T22:20:32.859Z,14.46
2017-08-22T22:21:00.926Z,14.37
2017-08-22T22:21:28.821Z,14.5
2017-08-22T22:21:56.873Z,14.36
2017-08-22T22:22:25.709Z,14.43
2017-08-22T22:22:53.752Z,14.47
2017-08-22T22:23:21.812Z,14.47
2017-08-22T22:23:49.866Z,14.4
2017-08-22T22:24:17.882Z,14.4
2017-08-22T22:24:46.588Z,14.4
2017-08-22T22:25:14.490Z,14.45
2017-08-22T22:25:43.328Z,14.43
2017-08-22T22:26:11.532Z,14.45
2017-08-22T22:26:39.393Z,14.5
2017-08-22T22:27:07.449Z,14.45
2017-08-22T22:27:35.505Z,14.5
2017-08-22T22:28:03.471Z,14.52
2017-08-22T22:28:32.209Z,14.5
2017-08-22T22:29:01.035Z,14.43
2017-08-22T22:29:31.438Z,14.57
2017-08-22T22:30:00.283Z,14.46
2017-08-22T22:30:29.107Z,14.55
2017-08-22T22:30:57.941Z,14.57
2017-08-22T22:31:25.996Z,14.54
2017-08-22T22:31:53.855Z,14.55
2017-08-22T22:32:22.674Z,14.55
2017-08-22T22:32:51.047Z,14.52
2017-08-22T22:33:19.861Z,14.55
2017-08-22T22:33:47.829Z,14.52
2017-08-22T22:34:15.694Z,14.54
2017-08-22T22:34:43.746Z,14.52
2017-08-22T22:35:12.595Z,14.57
2017-08-22T22:35:40.554Z,14.58
2017-08-22T22:36:08.542Z,14.6
2017-08-22T22:36:36.505Z,14.6
2017-08-22T22:37:04.506Z,14.61
2017-08-22T22:37:32.560Z,14.57
2017-08-22T22:38:00.616Z,14.58
2017-08-22T22:38:28.562Z,14.6
2017-08-22T22:38:56.600Z,14.6
2017-08-22T22:39:24.651Z,14.61
2017-08-22T22:39:52.607Z,14.64
2017-08-22T22:40:21.436Z,14.58
2017-08-22T22:41:27.918Z,14.65
2017-08-22T22:41:55.971Z,14.57
2017-08-22T22:42:24.023Z,14.64
2017-08-22T22:42:52.840Z,14.6
2017-08-22T22:43:21.686Z,14.65
2017-08-22T22:43:49.752Z,14.65
2017-08-22T22:44:18.490Z,14.65
2017-08-22T22:44:46.546Z,14.65
2017-08-22T22:45:14.590Z,14.7
2017-08-22T22:45:42.549Z,14.68
2017-08-22T22:46:10.595Z,14.58
2017-08-22T22:46:38.643Z,14.58
2017-08-22T22:47:06.598Z,14.69
2017-08-22T22:47:34.556Z,14.6
2017-08-22T22:48:02.603Z,14.72
2017-08-22T22:48:30.645Z,14.7
2017-08-22T22:48:58.683Z,14.64
2017-08-22T22:49:26.565Z,14.62
2017-08-22T22:49:55.391Z,14.61
2017-08-22T22:50:23.349Z,14.6
2017-08-22T22:50:51.414Z,14.6
2017-08-22T22:51:19.485Z,14.58
2017-08-22T22:51:47.450Z,14.61
2017-08-22T22:52:16.279Z,14.61
2017-08-22T22:52:44.322Z,14.65
2017-08-22T22:53:12.368Z,14.64
2017-08-22T22:53:40.413Z,14.69
2017-08-22T22:54:08.469Z,14.6
2017-08-22T22:54:37.304Z,14.64
2017-08-22T22:55:06.039Z,14.57
2017-08-22T22:55:34.870Z,14.69
2017-08-22T22:56:03.696Z,14.62
2017-08-22T22:56:32.685Z,14.62
2017-08-22T22:57:00.736Z,14.64
2017-08-22T22:57:28.780Z,14.75
2017-08-22T22:57:56.823Z,14.62
2017-08-22T22:58:24.865Z,14.65
2017-08-22T22:58:52.907Z,14.68
2017-08-22T22:59:20.961Z,14.64
2017-08-22T22:59:48.908Z,14.77
2017-08-22T23:00:17.184Z,14.68
2017-08-22T23:00:45.140Z,14.72
2017-08-22T23:01:13.190Z,14.7
2017-08-22T23:01:41.250Z,14.64
2017-08-22T23:02:09.278Z,14.68
2017-08-22T23:02:38.109Z,14.72
2017-08-22T23:03:06.946Z,14.65
2017-08-22T23:03:35.691Z,14.64
2017-08-22T23:04:04.531Z,14.64
2017-08-22T23:04:32.581Z,14.62
2017-08-22T23:05:00.641Z,14.69
2017-08-22T23:05:29.471Z,14.64
2017-08-22T23:05:58.307Z,14.7
2017-08-22T23:06:26.356Z,14.64
2017-08-22T23:06:55.188Z,14.68
2017-08-22T23:07:23.152Z,14.69
2017-08-22T23:07:51.981Z,14.57
2017-08-22T23:08:20.808Z,14.6
2017-08-22T23:08:48.865Z,14.64
2017-08-22T23:09:16.828Z,14.64
2017-08-22T23:09:45.662Z,14.57
2017-08-22T23:10:13.616Z,14.58
2017-08-22T23:10:42.351Z,14.55
2017-08-22T23:11:10.385Z,14.54
2017-08-22T23:11:39.360Z,14.5
2017-08-22T23:12:08.186Z,14.5
2017-08-22T23:12:36.135Z,14.52
2017-08-22T23:13:04.183Z,14.52
2017-08-22T23:13:32.919Z,14.54
2017-08-22T23:14:00.974Z,14.55
2017-08-22T23:14:28.941Z,14.57
2017-08-22T23:14:56.985Z,14.54
2017-08-22T23:15:25.821Z,14.52
2017-08-22T23:15:53.697Z,14.47
2017-08-22T23:16:22.519Z,14.55
2017-08-22T23:16:50.577Z,14.52
2017-08-22T23:17:18.629Z,14.57
2017-08-22T23:17:47.450Z,14.52
2017-08-22T23:18:15.210Z,14.52
2017-08-22T23:18:44.000Z,14.55
2017-08-22T23:19:13.493Z,14.52
2017-08-22T23:19:42.239Z,14.52
2017-08-22T23:20:48.547Z,14.52
2017-08-22T23:21:17.383Z,14.6
2017-08-22T23:21:46.122Z,14.58
2017-08-22T23:22:14.943Z,14.5
2017-08-22T23:22:42.908Z,14.57
2017-08-22T23:23:11.797Z,14.55
2017-08-22T23:23:40.625Z,14.6
2017-08-22T23:24:08.683Z,14.54
2017-08-22T23:24:36.733Z,14.5
2017-08-22T23:25:05.552Z,14.54
2017-08-22T23:25:33.614Z,14.52
2017-08-22T23:26:01.654Z,14.55
2017-08-22T23:26:30.488Z,14.5
2017-08-22T23:26:58.545Z,14.52
2017-08-22T23:27:27.374Z,14.54
2017-08-22T23:27:56.108Z,14.47
2017-08-22T23:28:24.764Z,14.52
2017-08-22T23:28:53.586Z,14.5
2017-08-22T23:29:22.410Z,14.45
2017-08-22T23:29:50.364Z,14.46
2017-08-22T23:30:19.205Z,14.52
2017-08-22T23:30:47.267Z,14.45
2017-08-22T23:31:15.339Z,14.5
2017-08-22T23:31:43.988Z,14.55
2017-08-22T23:32:11.940Z,14.5
2017-08-22T23:32:40.680Z,14.52
2017-08-22T23:33:08.729Z,14.52
2017-08-22T23:33:36.602Z,14.51
2017-08-22T23:34:04.656Z,14.47
2017-08-22T23:34:34.367Z,14.51
2017-08-22T23:35:03.113Z,14.51
2017-08-22T23:35:31.163Z,14.52
2017-08-22T23:35:59.135Z,14.51
2017-08-22T23:36:27.188Z,14.52
2017-08-22T23:36:56.025Z,14.57
2017-08-22T23:37:24.853Z,14.54
2017-08-22T23:37:53.686Z,14.52
2017-08-22T23:38:23.302Z,14.52
2017-08-22T23:38:51.348Z,14.54
2017-08-22T23:39:20.173Z,14.51
2017-08-22T23:39:48.129Z,14.54
2017-08-22T23:40:17.651Z,14.57
2017-08-22T23:40:47.269Z,14.54
2017-08-22T23:41:16.103Z,14.52
2017-08-22T23:41:44.249Z,14.52
2017-08-22T23:42:12.216Z,14.51
2017-08-22T23:42:40.572Z,14.52
2017-08-22T23:43:09.410Z,14.47
2017-08-22T23:43:38.250Z,14.5
2017-08-22T23:44:07.084Z,14.36
2017-08-22T23:44:35.136Z,14.39
2017-08-22T23:45:03.105Z,14.43
2017-08-22T23:45:31.157Z,14.52
2017-08-22T23:46:00.004Z,14.5
2017-08-22T23:46:28.050Z,14.4
2017-08-22T23:46:55.926Z,14.51
2017-08-22T23:47:23.884Z,14.51
2017-08-22T23:47:51.753Z,14.43
2017-08-22T23:48:20.506Z,14.5
2017-08-22T23:48:49.342Z,14.4
2017-08-22T23:49:17.394Z,14.4
2017-08-22T23:49:46.228Z,14.37
2017-08-22T23:50:14.269Z,14.45
2017-08-22T23:50:42.305Z,14.46
2017-08-22T23:51:11.910Z,14.45
2017-08-22T23:51:39.861Z,14.36
2017-08-22T23:52:07.811Z,14.4
2017-08-22T23:52:35.863Z,14.4
2017-08-22T23:53:05.471Z,14.42
2017-08-22T23:53:35.088Z,14.37
2017-08-22T23:54:03.048Z,14.45
2017-08-22T23:54:32.662Z,14.43
2017-08-22T23:55:00.629Z,14.43
2017-08-22T23:55:29.459Z,14.37
2017-08-22T23:55:57.509Z,14.47
2017-08-22T23:56:26.348Z,14.43
2017-08-22T23:56:55.287Z,14.47
2017-08-22T23:57:23.342Z,14.37
2017-08-22T23:57:51.373Z,14.46
2017-08-22T23:58:20.107Z,14.57
2017-08-22T23:58:48.158Z,14.52
2017-08-22T23:59:16.198Z,14.51
